createdAt,value
2019-05-05T00:01:22.056Z,90.70
2019-05-05T00:03:59.715Z,90.90
2019-05-05T00:06:30.504Z,91.40
2019-05-05T00:09:00.165Z,91.60
2019-05-05T00:11:38.284Z,91.40
2019-05-05T00:14:15.281Z,91.60
2019-05-05T00:16:59.404Z,91.60
2019-05-05T00:19:33.128Z,91.70
2019-05-05T00:22:00.855Z,91.10
2019-05-05T00:24:30.576Z,91.20
2019-05-05T00:27:00.336Z,91.70
2019-05-05T00:29:29.967Z,91.70
2019-05-05T00:32:00.037Z,91.70
2019-05-05T00:34:30.615Z,91.60
2019-05-05T00:37:00.283Z,91.70
2019-05-05T00:39:30.180Z,91.90
2019-05-05T00:41:59.927Z,92.20
2019-05-05T00:44:29.592Z,91.60
2019-05-05T00:47:19.787Z,91.60
2019-05-05T00:49:51.003Z,91.30
2019-05-05T00:52:20.663Z,92.20
2019-05-05T00:54:50.620Z,92.20
2019-05-05T00:57:20.259Z,91.70
2019-05-05T00:59:50.383Z,91.70
2019-05-05T01:02:29.411Z,91.60
2019-05-05T01:05:12.015Z,91.80
2019-05-05T01:07:41.664Z,91.40
2019-05-05T01:10:11.466Z,91.70
2019-05-05T01:12:41.395Z,91.50
2019-05-05T01:15:11.456Z,91.80
2019-05-05T01:17:41.891Z,91.90
2019-05-05T01:20:14.528Z,92.20
2019-05-05T01:22:44.793Z,91.70
2019-05-05T01:25:15.020Z,91.30
2019-05-05T01:27:45.391Z,91.10
2019-05-05T01:30:18.827Z,91.90
2019-05-05T01:32:51.841Z,91.90
2019-05-05T01:35:21.550Z,91.80
2019-05-05T01:38:06.367Z,91.90
2019-05-05T01:40:54.743Z,91.60
2019-05-05T01:43:25.293Z,92.10
2019-05-05T01:45:55.399Z,91.80
2019-05-05T01:48:26.107Z,91.30
2019-05-05T01:50:55.824Z,91.20
2019-05-05T01:53:25.465Z,91.70
2019-05-05T01:55:56.207Z,91.60
2019-05-05T01:58:26.112Z,91.70
2019-05-05T02:00:55.755Z,91.90
2019-05-05T02:03:25.756Z,91.90
2019-05-05T02:05:55.707Z,91.60
2019-05-05T02:08:25.490Z,91.50
2019-05-05T02:10:55.296Z,91.60
2019-05-05T02:13:25.247Z,91.30
2019-05-05T02:15:55.915Z,91.60
2019-05-05T02:18:25.686Z,91.60
2019-05-05T02:21:01.323Z,91.70
2019-05-05T02:23:31.063Z,92.40
2019-05-05T02:26:00.952Z,92.20
2019-05-05T02:28:36.642Z,92.30
2019-05-05T02:31:25.620Z,92.10
2019-05-05T02:33:56.834Z,92.00
2019-05-05T02:36:27.018Z,92.20
2019-05-05T02:38:56.961Z,92.30
2019-05-05T02:41:27.212Z,92.30
2019-05-05T02:43:57.820Z,92.60
2019-05-05T02:46:45.119Z,92.70
2019-05-05T02:49:15.897Z,92.80
2019-05-05T02:51:47.344Z,92.80
2019-05-05T02:54:18.584Z,92.50
2019-05-05T02:56:50.442Z,92.70
2019-05-05T02:59:43.509Z,93.00
2019-05-05T03:02:20.383Z,93.10
2019-05-05T03:04:51.102Z,92.90
2019-05-05T03:07:25.137Z,92.80
2019-05-05T03:09:54.904Z,92.70
2019-05-05T03:12:25.991Z,92.80
2019-05-05T03:14:58.438Z,93.30
2019-05-05T03:17:28.463Z,92.80
2019-05-05T03:19:58.453Z,92.80
2019-05-05T03:22:28.383Z,92.20
2019-05-05T03:24:58.891Z,92.10
2019-05-05T03:27:28.724Z,92.30
2019-05-05T03:29:59.706Z,92.20
2019-05-05T03:32:29.432Z,92.20
2019-05-05T03:34:59.530Z,92.40
2019-05-05T03:37:29.584Z,92.40
2019-05-05T03:40:06.496Z,92.60
2019-05-05T03:42:44.277Z,92.30
2019-05-05T03:45:24.624Z,92.30
2019-05-05T03:47:54.624Z,92.30
2019-05-05T03:50:24.445Z,92.30
2019-05-05T03:52:54.756Z,92.40
2019-05-05T03:55:24.644Z,92.70
2019-05-05T03:57:55.161Z,93.00
2019-05-05T04:00:44.740Z,93.30
2019-05-05T04:03:14.820Z,93.20
2019-05-05T04:05:48.976Z,93.20
2019-05-05T04:08:19.018Z,92.90
2019-05-05T04:10:48.672Z,92.40
2019-05-05T04:13:18.495Z,92.10
2019-05-05T04:16:07.901Z,92.20
2019-05-05T04:18:44.089Z,92.10
2019-05-05T04:21:14.532Z,92.30
2019-05-05T04:23:44.572Z,92.30
2019-05-05T04:26:14.367Z,92.00
2019-05-05T04:28:44.110Z,92.80
2019-05-05T04:31:13.832Z,92.30
2019-05-05T04:33:44.500Z,92.50
2019-05-05T04:36:14.588Z,92.40
2019-05-05T04:38:44.352Z,92.40
2019-05-05T04:41:14.204Z,92.90
2019-05-05T04:43:44.305Z,92.70
2019-05-05T04:46:14.223Z,92.70
2019-05-05T04:48:50.219Z,92.80
2019-05-05T04:51:24.532Z,93.00
2019-05-05T04:54:26.018Z,92.90
2019-05-05T04:56:56.119Z,93.00
2019-05-05T04:59:26.152Z,93.00
2019-05-05T05:01:58.471Z,92.90
2019-05-05T05:04:33.706Z,93.00
2019-05-05T05:07:04.599Z,93.10
2019-05-05T05:09:35.200Z,93.20
2019-05-05T05:12:05.191Z,93.30
2019-05-05T05:14:35.212Z,93.40
2019-05-05T05:17:09.540Z,93.60
2019-05-05T05:19:39.228Z,93.80
2019-05-05T05:22:09.335Z,94.20
2019-05-05T05:24:39.086Z,94.10
2019-05-05T05:27:08.969Z,94.00
2019-05-05T05:29:38.763Z,94.00
2019-05-05T05:32:08.419Z,93.70
2019-05-05T05:34:38.119Z,93.80
2019-05-05T05:37:08.006Z,93.80
2019-05-05T05:39:44.092Z,93.50
2019-05-05T05:42:14.467Z,93.20
2019-05-05T05:44:55.213Z,93.50
2019-05-05T05:47:33.839Z,92.70
2019-05-05T05:50:24.511Z,93.10
2019-05-05T05:52:54.318Z,93.00
2019-05-05T05:55:24.218Z,92.60
2019-05-05T05:57:54.282Z,92.60
2019-05-05T06:00:24.079Z,92.30
2019-05-05T06:02:54.535Z,92.20
2019-05-05T06:05:24.468Z,91.70
2019-05-05T06:07:54.580Z,92.00
2019-05-05T06:10:27.345Z,91.70
2019-05-05T06:12:56.099Z,91.20
2019-05-05T06:15:25.848Z,91.20
2019-05-05T06:17:55.939Z,91.10
2019-05-05T06:20:25.650Z,90.90
2019-05-05T06:22:55.881Z,90.30
2019-05-05T06:25:26.559Z,90.70
2019-05-05T06:27:56.631Z,90.50
2019-05-05T06:30:26.361Z,90.00
2019-05-05T06:32:56.151Z,89.00
2019-05-05T06:35:26.019Z,87.20
2019-05-05T06:37:55.899Z,88.40
2019-05-05T06:40:44.957Z,88.30
2019-05-05T06:43:34.776Z,88.40
2019-05-05T06:46:06.594Z,84.40
2019-05-05T06:48:36.311Z,85.70
2019-05-05T06:51:06.174Z,86.10
2019-05-05T06:53:36.184Z,81.40
2019-05-05T06:56:06.011Z,82.90
2019-05-05T06:58:35.647Z,84.80
2019-05-05T07:01:05.558Z,83.50
2019-05-05T07:03:35.371Z,84.20
2019-05-05T07:06:05.349Z,82.80
2019-05-05T07:08:35.126Z,77.10
2019-05-05T07:11:04.891Z,80.00
2019-05-05T07:13:34.675Z,80.90
2019-05-05T07:16:04.918Z,72.90
2019-05-05T07:18:34.911Z,76.90
2019-05-05T07:21:04.887Z,75.70
2019-05-05T07:23:34.864Z,77.10
2019-05-05T07:26:05.020Z,70.90
2019-05-05T07:28:34.747Z,66.30
2019-05-05T07:31:04.863Z,66.10
2019-05-05T07:33:34.873Z,72.30
2019-05-05T07:36:24.845Z,63.20
2019-05-05T07:38:54.700Z,67.50
2019-05-05T07:41:24.473Z,62.60
2019-05-05T07:43:54.429Z,64.20
2019-05-05T07:46:24.251Z,68.80
2019-05-05T07:48:54.480Z,63.20
2019-05-05T07:51:24.379Z,61.80
2019-05-05T07:53:54.779Z,69.10
2019-05-05T07:56:25.523Z,65.80
2019-05-05T07:58:55.426Z,65.00
2019-05-05T08:01:25.195Z,61.10
2019-05-05T08:03:55.042Z,63.50
2019-05-05T08:06:24.855Z,61.80
2019-05-05T08:08:54.674Z,59.60
2019-05-05T08:11:24.592Z,61.80
2019-05-05T08:13:54.800Z,57.10
2019-05-05T08:16:34.827Z,58.40
2019-05-05T08:19:36.043Z,59.10
2019-05-05T08:22:05.959Z,61.60
2019-05-05T08:25:05.181Z,59.90
2019-05-05T08:27:49.591Z,59.80
2019-05-05T08:30:28.235Z,59.70
2019-05-05T08:32:58.418Z,58.50
2019-05-05T08:35:28.591Z,60.60
2019-05-05T08:37:58.539Z,62.00
2019-05-05T08:40:28.220Z,60.20
2019-05-05T08:42:57.896Z,60.50
2019-05-05T08:45:27.948Z,60.40
2019-05-05T08:47:57.604Z,59.30
2019-05-05T08:50:27.341Z,61.70
2019-05-05T08:52:57.317Z,61.40
2019-05-05T08:55:28.513Z,60.10
2019-05-05T08:57:59.501Z,63.00
2019-05-05T09:00:29.262Z,61.20
2019-05-05T09:02:59.620Z,63.10
2019-05-05T09:05:29.657Z,61.30
2019-05-05T09:08:00.036Z,59.30
2019-05-05T09:10:29.804Z,64.10
2019-05-05T09:12:59.688Z,61.10
2019-05-05T09:15:29.748Z,63.60
2019-05-05T09:17:59.794Z,59.50
2019-05-05T09:20:29.527Z,56.30
2019-05-05T09:22:59.714Z,59.80
2019-05-05T09:25:48.488Z,62.00
2019-05-05T09:28:35.655Z,59.50
2019-05-05T09:31:05.539Z,54.40
2019-05-05T09:33:35.355Z,55.90
2019-05-05T09:36:05.230Z,58.60
2019-05-05T09:38:35.479Z,58.80
2019-05-05T09:41:05.261Z,59.40
2019-05-05T09:43:35.222Z,55.80
2019-05-05T09:46:05.070Z,60.40
2019-05-05T09:48:34.816Z,57.80
2019-05-05T09:51:04.775Z,57.50
2019-05-05T09:53:34.755Z,59.40
2019-05-05T09:56:04.503Z,56.60
2019-05-05T09:58:34.856Z,58.30
2019-05-05T10:01:05.642Z,61.90
2019-05-05T10:03:35.498Z,63.70
2019-05-05T10:06:05.586Z,61.10
2019-05-05T10:08:35.556Z,58.80
2019-05-05T10:11:05.622Z,56.20
2019-05-05T10:13:35.275Z,56.60
2019-05-05T10:16:05.302Z,51.90
2019-05-05T10:18:35.999Z,54.00
2019-05-05T10:21:05.814Z,52.00
2019-05-05T10:23:37.743Z,55.40
2019-05-05T10:26:09.908Z,54.30
2019-05-05T10:28:39.561Z,56.90
2019-05-05T10:31:09.461Z,55.70
2019-05-05T10:33:42.816Z,53.30
2019-05-05T10:36:13.861Z,54.10
2019-05-05T10:38:46.866Z,57.20
2019-05-05T10:41:16.543Z,58.60
2019-05-05T10:43:46.196Z,56.20
2019-05-05T10:46:16.162Z,59.00
2019-05-05T10:48:45.843Z,64.10
2019-05-05T10:51:15.597Z,68.40
2019-05-05T10:53:45.598Z,70.30
2019-05-05T10:56:15.529Z,71.30
2019-05-05T10:58:45.183Z,71.00
2019-05-05T11:01:15.491Z,71.70
2019-05-05T11:03:45.235Z,71.60
2019-05-05T11:06:15.142Z,72.50
2019-05-05T11:08:45.643Z,73.30
2019-05-05T11:11:15.373Z,67.00
2019-05-05T11:13:46.475Z,67.60
2019-05-05T11:16:16.212Z,66.90
2019-05-05T11:18:46.276Z,67.10
2019-05-05T11:21:16.119Z,64.10
2019-05-05T11:23:46.133Z,62.90
2019-05-05T11:26:16.023Z,61.20
2019-05-05T11:28:46.183Z,62.90
2019-05-05T11:31:15.859Z,59.20
2019-05-05T11:34:16.802Z,58.90
2019-05-05T11:36:54.356Z,59.10
2019-05-05T11:39:24.456Z,60.50
2019-05-05T11:41:54.762Z,60.60
2019-05-05T11:44:24.644Z,60.70
2019-05-05T11:46:54.809Z,61.30
2019-05-05T11:49:24.698Z,56.20
2019-05-05T11:51:54.663Z,57.50
2019-05-05T11:54:25.516Z,57.80
2019-05-05T11:56:56.344Z,59.20
2019-05-05T11:59:25.996Z,62.00
2019-05-05T12:01:55.720Z,58.80
2019-05-05T12:04:25.393Z,59.30
2019-05-05T12:06:55.076Z,57.10
2019-05-05T12:09:31.156Z,57.30
2019-05-05T12:12:01.103Z,58.80
2019-05-05T12:14:31.960Z,58.50
2019-05-05T12:17:01.717Z,58.00
2019-05-05T12:19:33.619Z,53.20
2019-05-05T12:22:03.158Z,56.30
2019-05-05T12:24:36.070Z,57.70
2019-05-05T12:27:24.594Z,54.20
2019-05-05T12:29:58.163Z,52.30
2019-05-05T12:32:28.166Z,52.70
2019-05-05T12:34:57.888Z,55.10
2019-05-05T12:37:28.583Z,54.70
2019-05-05T12:39:58.450Z,57.00
2019-05-05T12:42:28.235Z,56.20
2019-05-05T12:45:04.365Z,56.10
2019-05-05T12:47:53.287Z,56.10
2019-05-05T12:50:24.609Z,53.80
2019-05-05T12:52:54.963Z,54.10
2019-05-05T12:55:38.311Z,55.20
2019-05-05T12:57:56.131Z,54.30
2019-05-05T13:00:26.169Z,52.30
2019-05-05T13:02:55.919Z,54.40
2019-05-05T13:05:25.899Z,53.50
2019-05-05T13:07:55.661Z,53.20
2019-05-05T13:10:25.704Z,53.60
2019-05-05T13:12:55.751Z,52.50
2019-05-05T13:15:25.751Z,51.50
2019-05-05T13:17:56.430Z,52.70
2019-05-05T13:20:33.921Z,49.30
2019-05-05T13:23:14.626Z,49.80
2019-05-05T13:25:55.766Z,50.40
2019-05-05T13:28:23.828Z,50.30
2019-05-05T13:30:54.149Z,53.10
2019-05-05T13:33:24.684Z,52.60
2019-05-05T13:35:55.080Z,53.30
2019-05-05T13:38:25.753Z,51.80
2019-05-05T13:40:55.843Z,51.30
2019-05-05T13:43:25.940Z,51.80
2019-05-05T13:46:07.527Z,50.60
2019-05-05T13:48:37.327Z,52.70
2019-05-05T13:51:07.804Z,55.40
2019-05-05T13:53:37.479Z,55.70
2019-05-05T13:56:11.496Z,56.70
2019-05-05T13:58:38.520Z,56.80
2019-05-05T14:01:09.947Z,56.10
2019-05-05T14:03:39.811Z,55.80
2019-05-05T14:06:09.505Z,56.10
2019-05-05T14:08:39.164Z,55.90
2019-05-05T14:11:08.851Z,56.30
2019-05-05T14:13:38.751Z,55.40
2019-05-05T14:16:08.491Z,55.70
2019-05-05T14:18:38.383Z,56.70
2019-05-05T14:21:08.203Z,56.50
2019-05-05T14:24:03.812Z,55.00
2019-05-05T14:26:35.401Z,54.70
2019-05-05T14:29:08.082Z,55.30
2019-05-05T14:31:39.140Z,54.80
2019-05-05T14:34:16.949Z,54.40
2019-05-05T14:37:06.061Z,55.00
2019-05-05T14:39:35.803Z,55.10
2019-05-05T14:42:05.614Z,54.60
2019-05-05T14:44:35.615Z,55.30
2019-05-05T14:47:05.455Z,55.20
2019-05-05T14:49:35.431Z,53.60
2019-05-05T14:52:05.499Z,54.80
2019-05-05T14:54:35.200Z,55.10
2019-05-05T14:57:05.046Z,55.30
2019-05-05T14:59:36.979Z,56.20
2019-05-05T15:02:06.143Z,55.00
2019-05-05T15:04:37.444Z,55.20
2019-05-05T15:07:29.220Z,55.90
2019-05-05T15:10:16.339Z,56.60
2019-05-05T15:12:49.759Z,57.30
2019-05-05T15:15:19.555Z,58.10
2019-05-05T15:17:49.499Z,58.80
2019-05-05T15:20:19.278Z,58.80
2019-05-05T15:22:48.960Z,57.30
2019-05-05T15:25:19.260Z,57.50
2019-05-05T15:27:49.132Z,57.30
2019-05-05T15:30:18.987Z,56.50
2019-05-05T15:32:48.647Z,56.60
2019-05-05T15:35:18.358Z,56.20
2019-05-05T15:37:48.095Z,57.10
2019-05-05T15:40:17.928Z,57.00
2019-05-05T15:42:47.752Z,56.90
2019-05-05T15:45:17.722Z,57.90
2019-05-05T15:47:47.363Z,58.00
2019-05-05T15:50:17.291Z,58.40
2019-05-05T15:52:46.930Z,58.60
2019-05-05T15:55:16.770Z,58.70
2019-05-05T15:57:46.572Z,59.70
2019-05-05T16:00:17.963Z,58.80
2019-05-05T16:02:47.988Z,58.20
2019-05-05T16:05:17.995Z,57.70
2019-05-05T16:07:48.011Z,57.60
2019-05-05T16:10:19.536Z,58.30
2019-05-05T16:12:49.508Z,56.10
2019-05-05T16:15:50.407Z,56.30
2019-05-05T16:18:34.319Z,57.40
2019-05-05T16:21:29.012Z,58.60
2019-05-05T16:24:03.550Z,59.80
2019-05-05T16:26:33.370Z,60.20
2019-05-05T16:29:04.177Z,59.90
2019-05-05T16:31:34.263Z,59.90
2019-05-05T16:34:04.134Z,60.50
2019-05-05T16:36:34.903Z,60.70
2019-05-05T16:39:06.407Z,59.90
2019-05-05T16:41:37.180Z,60.00
2019-05-05T16:44:06.988Z,60.80
2019-05-05T16:46:36.968Z,60.90
2019-05-05T16:49:06.692Z,61.50
2019-05-05T16:51:41.411Z,61.40
2019-05-05T16:54:17.048Z,59.70
2019-05-05T16:56:47.016Z,60.60
2019-05-05T16:59:16.725Z,61.00
2019-05-05T17:01:46.412Z,60.60
2019-05-05T17:04:16.128Z,60.20
2019-05-05T17:06:46.115Z,61.40
2019-05-05T17:09:16.167Z,61.80
2019-05-05T17:12:04.915Z,62.30
2019-05-05T17:14:54.982Z,61.30
2019-05-05T17:17:31.306Z,61.40
2019-05-05T17:20:04.648Z,61.70
2019-05-05T17:22:48.208Z,62.00
2019-05-05T17:25:18.014Z,61.70
2019-05-05T17:27:51.135Z,62.00
2019-05-05T17:30:20.288Z,62.60
2019-05-05T17:32:49.943Z,62.30
2019-05-05T17:35:19.667Z,62.30
2019-05-05T17:37:49.460Z,62.30
2019-05-05T17:40:25.768Z,62.00
2019-05-05T17:43:06.703Z,61.50
2019-05-05T17:45:55.072Z,59.90
2019-05-05T17:48:44.196Z,59.10
2019-05-05T17:51:36.827Z,58.20
2019-05-05T17:54:14.435Z,58.70
2019-05-05T17:56:44.415Z,58.90
2019-05-05T17:59:14.162Z,59.40
2019-05-05T18:01:44.240Z,59.60
2019-05-05T18:04:14.294Z,60.00
2019-05-05T18:07:06.046Z,60.40
2019-05-05T18:09:53.986Z,60.30
2019-05-05T18:12:41.831Z,61.20
2019-05-05T18:15:30.964Z,62.10
2019-05-05T18:18:01.260Z,63.00
2019-05-05T18:20:31.102Z,63.00
2019-05-05T18:23:01.075Z,63.70
2019-05-05T18:25:30.718Z,63.90
2019-05-05T18:28:15.293Z,64.70
2019-05-05T18:30:33.476Z,65.10
2019-05-05T18:33:04.172Z,64.70
2019-05-05T18:35:34.001Z,66.10
2019-05-05T18:38:04.828Z,67.00
2019-05-05T18:40:34.487Z,67.10
2019-05-05T18:43:08.586Z,67.80
2019-05-05T18:45:38.354Z,68.60
2019-05-05T18:48:08.003Z,68.70
2019-05-05T18:50:37.648Z,69.50
2019-05-05T18:53:07.327Z,70.70
2019-05-05T18:55:37.181Z,68.70
2019-05-05T18:58:08.359Z,68.40
2019-05-05T19:00:55.928Z,71.00
2019-05-05T19:03:29.960Z,71.60
2019-05-05T19:06:21.736Z,72.20
2019-05-05T19:08:55.163Z,72.90
2019-05-05T19:11:25.082Z,72.00
2019-05-05T19:13:54.727Z,72.00
2019-05-05T19:16:24.435Z,71.80
2019-05-05T19:18:55.720Z,75.10
2019-05-05T19:21:30.148Z,75.00
2019-05-05T19:24:00.094Z,75.40
2019-05-05T19:26:29.727Z,77.30
2019-05-05T19:29:02.136Z,77.00
2019-05-05T19:31:32.130Z,76.10
2019-05-05T19:34:04.031Z,75.90
2019-05-05T19:36:34.285Z,78.80
2019-05-05T19:39:05.916Z,78.10
2019-05-05T19:41:37.356Z,80.20
2019-05-05T19:44:07.113Z,80.60
2019-05-05T19:46:44.253Z,81.30
2019-05-05T19:49:14.881Z,79.50
2019-05-05T19:51:44.879Z,79.20
2019-05-05T19:54:14.533Z,82.40
2019-05-05T19:56:45.446Z,78.70
2019-05-05T19:59:15.094Z,80.70
2019-05-05T20:01:45.165Z,79.20
2019-05-05T20:04:16.131Z,78.90
2019-05-05T20:06:45.834Z,83.00
2019-05-05T20:09:15.478Z,82.50
2019-05-05T20:11:45.395Z,81.80
2019-05-05T20:14:15.351Z,83.00
2019-05-05T20:17:05.267Z,79.70
2019-05-05T20:19:39.748Z,85.20
2019-05-05T20:22:10.207Z,85.20
2019-05-05T20:24:40.351Z,85.10
2019-05-05T20:27:10.023Z,84.80
2019-05-05T20:29:40.052Z,83.00
2019-05-05T20:32:09.787Z,83.60
2019-05-05T20:35:03.933Z,81.20
2019-05-05T20:37:39.594Z,84.10
2019-05-05T20:40:10.901Z,83.70
2019-05-05T20:42:40.561Z,82.60
2019-05-05T20:45:14.520Z,82.80
2019-05-05T20:47:44.022Z,82.70
2019-05-05T20:50:13.970Z,85.40
2019-05-05T20:52:44.243Z,83.10
2019-05-05T20:55:14.395Z,83.40
2019-05-05T20:57:44.415Z,85.80
2019-05-05T21:00:16.616Z,83.90
2019-05-05T21:02:47.480Z,83.10
2019-05-05T21:05:17.143Z,82.20
2019-05-05T21:07:46.847Z,82.50
2019-05-05T21:10:16.673Z,82.30
2019-05-05T21:12:46.731Z,82.90
2019-05-05T21:15:16.543Z,81.50
2019-05-05T21:17:46.191Z,82.50
2019-05-05T21:20:16.835Z,81.60
2019-05-05T21:22:58.167Z,82.00
2019-05-05T21:25:30.415Z,83.20
2019-05-05T21:28:00.163Z,83.10
2019-05-05T21:30:29.792Z,83.50
2019-05-05T21:32:59.820Z,84.30
2019-05-05T21:35:29.896Z,84.40
2019-05-05T21:37:59.627Z,84.80
2019-05-05T21:40:29.612Z,84.50
2019-05-05T21:42:59.319Z,84.70
2019-05-05T21:45:28.969Z,85.10
2019-05-05T21:47:58.622Z,83.20
2019-05-05T21:50:33.973Z,84.30
2019-05-05T21:53:14.025Z,85.30
2019-05-05T21:55:48.458Z,84.40
2019-05-05T21:58:25.401Z,85.60
2019-05-05T22:01:27.007Z,86.20
2019-05-05T22:03:55.248Z,87.50
2019-05-05T22:06:25.063Z,89.10
2019-05-05T22:08:54.764Z,90.30
2019-05-05T22:11:24.653Z,88.30
2019-05-05T22:13:54.299Z,89.20
2019-05-05T22:16:24.256Z,88.40
2019-05-05T22:18:54.802Z,88.60
2019-05-05T22:21:35.986Z,88.00
2019-05-05T22:24:15.971Z,86.60
2019-05-05T22:26:45.891Z,90.40
2019-05-05T22:29:17.058Z,90.10
2019-05-05T22:31:48.587Z,90.80
2019-05-05T22:34:18.618Z,90.10
2019-05-05T22:36:48.360Z,89.00
2019-05-05T22:39:18.490Z,90.90
2019-05-05T22:41:48.129Z,90.30
2019-05-05T22:44:17.809Z,88.20
2019-05-05T22:46:47.527Z,88.20
2019-05-05T22:49:17.177Z,90.60
2019-05-05T22:51:46.822Z,90.60
2019-05-05T22:54:16.480Z,89.80
2019-05-05T22:56:46.116Z,89.30
2019-05-05T22:59:15.948Z,89.80
2019-05-05T23:01:45.872Z,88.20
2019-05-05T23:04:24.228Z,88.10
2019-05-05T23:06:59.051Z,88.20
2019-05-05T23:09:28.944Z,88.20
2019-05-05T23:11:58.578Z,88.60
2019-05-05T23:14:28.532Z,88.20
2019-05-05T23:17:06.964Z,88.10
2019-05-05T23:19:44.374Z,88.40
2019-05-05T23:22:23.946Z,89.30
2019-05-05T23:25:01.375Z,89.00
2019-05-05T23:27:46.758Z,88.20
2019-05-05T23:30:16.884Z,89.30
2019-05-05T23:32:46.963Z,88.00
2019-05-05T23:35:17.092Z,88.70
2019-05-05T23:37:48.175Z,88.00
2019-05-05T23:40:21.851Z,89.30
2019-05-05T23:42:53.951Z,89.50
2019-05-05T23:45:24.728Z,89.40
2019-05-05T23:47:55.276Z,89.10
2019-05-05T23:50:25.095Z,88.20
2019-05-05T23:52:54.914Z,90.70
2019-05-05T23:55:24.739Z,90.50
2019-05-05T23:57:55.088Z,90.40
